sensor_id;sensor_type;location;lat;lon;timestamp;pressure;altitude;pressure_sealevel;temperature;humidity
39105;BME280;46464;51.154;13.812;2023-04-30T00:01:54;52285.50;;;-146.96;79.96
39105;BME280;46464;51.154;13.812;2023-04-30T00:04:21;52309.91;;;-146.96;80.39
39105;BME280;46464;51.154;13.812;2023-04-30T00:06:47;52301.78;;;-146.96;80.48
39105;BME280;46464;51.154;13.812;2023-04-30T00:09:14;52311.94;;;-146.96;80.54
39105;BME280;46464;51.154;13.812;2023-04-30T00:11:40;52287.53;;;-146.96;80.56
39105;BME280;46464;51.154;13.812;2023-04-30T00:14:06;52287.53;;;-146.96;80.71
39105;BME280;46464;51.154;13.812;2023-04-30T00:16:33;52309.91;;;-146.96;80.79
39105;BME280;46464;51.154;13.812;2023-04-30T00:18:59;52311.94;;;-146.96;81.78
39105;BME280;46464;51.154;13.812;2023-04-30T00:21:26;52271.25;;;-146.96;81.25
39105;BME280;46464;51.154;13.812;2023-04-30T00:23:52;52293.63;;;-146.96;81.20
39105;BME280;46464;51.154;13.812;2023-04-30T00:26:19;52313.97;;;-146.96;80.99
39105;BME280;46464;51.154;13.812;2023-04-30T00:28:45;52318.06;;;-146.96;80.81
39105;BME280;46464;51.154;13.812;2023-04-30T00:31:12;52324.16;;;-146.96;80.55
39105;BME280;46464;51.154;13.812;2023-04-30T00:33:38;52301.78;;;-146.96;80.21
39105;BME280;46464;51.154;13.812;2023-04-30T00:36:04;52291.59;;;-146.96;80.01
39105;BME280;46464;51.154;13.812;2023-04-30T00:38:31;52285.50;;;-146.96;80.21
39105;BME280;46464;51.154;13.812;2023-04-30T00:40:57;52320.09;;;-146.96;79.25
39105;BME280;46464;51.154;13.812;2023-04-30T00:43:24;52299.75;;;-146.96;78.83
39105;BME280;46464;51.154;13.812;2023-04-30T00:45:50;52297.72;;;-146.96;78.30
39105;BME280;46464;51.154;13.812;2023-04-30T00:48:17;52283.47;;;-146.96;78.40
39105;BME280;46464;51.154;13.812;2023-04-30T00:50:43;52311.94;;;-146.96;77.84
39105;BME280;46464;51.154;13.812;2023-04-30T00:53:10;52318.06;;;-146.96;77.46
39105;BME280;46464;51.154;13.812;2023-04-30T00:55:37;52285.50;;;-146.96;77.01
39105;BME280;46464;51.154;13.812;2023-04-30T00:58:04;52326.19;;;-146.96;76.86
39105;BME280;46464;51.154;13.812;2023-04-30T01:00:31;52332.28;;;-146.96;76.48
39105;BME280;46464;51.154;13.812;2023-04-30T01:02:57;52330.25;;;-146.96;76.37
39105;BME280;46464;51.154;13.812;2023-04-30T01:05:23;52324.16;;;-146.96;76.05
39105;BME280;46464;51.154;13.812;2023-04-30T01:07:51;52332.28;;;-146.96;75.92
39105;BME280;46464;51.154;13.812;2023-04-30T01:10:18;52316.03;;;-146.96;75.87
39105;BME280;46464;51.154;13.812;2023-04-30T01:12:49;52358.75;;;-146.96;76.06
39105;BME280;46464;51.154;13.812;2023-04-30T01:15:24;52318.06;;;-146.96;76.13
39105;BME280;46464;51.154;13.812;2023-04-30T01:18:06;52340.44;;;-146.96;76.16
39105;BME280;46464;51.154;13.812;2023-04-30T01:20:36;52334.34;;;-146.96;75.99
39105;BME280;46464;51.154;13.812;2023-04-30T01:23:13;52342.47;;;-146.96;76.08
39105;BME280;46464;51.154;13.812;2023-04-30T01:25:50;52364.84;;;-146.96;76.22
39105;BME280;46464;51.154;13.812;2023-04-30T01:28:18;52391.31;;;-146.96;76.30
39105;BME280;46464;51.154;13.812;2023-04-30T01:30:45;52360.78;;;-146.96;76.50
39105;BME280;46464;51.154;13.812;2023-04-30T01:33:12;52362.81;;;-146.96;76.68
39105;BME280;46464;51.154;13.812;2023-04-30T01:39:10;52403.50;;;-146.96;76.97
39105;BME280;46464;51.154;13.812;2023-04-30T01:41:08;52360.78;;;-146.96;77.42
39105;BME280;46464;51.154;13.812;2023-04-30T01:43:43;52379.09;;;-146.96;77.54
39105;BME280;46464;51.154;13.812;2023-04-30T01:46:25;52409.63;;;-146.96;77.73
39105;BME280;46464;51.154;13.812;2023-04-30T01:48:58;52354.69;;;-146.96;78.78
39105;BME280;46464;51.154;13.812;2023-04-30T01:51:30;52395.38;;;-146.96;79.33
39105;BME280;46464;51.154;13.812;2023-04-30T01:54:00;52389.28;;;-146.96;79.91
39105;BME280;46464;51.154;13.812;2023-04-30T01:56:34;52399.44;;;-146.96;80.08
39105;BME280;46464;51.154;13.812;2023-04-30T01:59:03;52375.03;;;-146.96;80.79
39105;BME280;46464;51.154;13.812;2023-04-30T02:01:31;52397.41;;;-146.96;80.91
39105;BME280;46464;51.154;13.812;2023-04-30T02:03:58;52434.03;;;-146.96;81.38
39105;BME280;46464;51.154;13.812;2023-04-30T02:06:25;52423.88;;;-146.96;81.65
39105;BME280;46464;51.154;13.812;2023-04-30T02:08:54;52419.78;;;-146.96;81.89
39105;BME280;46464;51.154;13.812;2023-04-30T02:11:32;52415.72;;;-146.96;82.11
39105;BME280;46464;51.154;13.812;2023-04-30T02:13:58;52444.22;;;-146.96;82.38
39105;BME280;46464;51.154;13.812;2023-04-30T02:16:24;52415.72;;;-146.96;82.69
39105;BME280;46464;51.154;13.812;2023-04-30T02:18:51;52411.66;;;-146.96;82.89
39105;BME280;46464;51.154;13.812;2023-04-30T02:21:17;52399.44;;;-146.96;83.14
39105;BME280;46464;51.154;13.812;2023-04-30T02:23:43;52438.09;;;-146.96;82.93
39105;BME280;46464;51.154;13.812;2023-04-30T02:26:10;52462.53;;;-146.96;82.52
39105;BME280;46464;51.154;13.812;2023-04-30T02:28:36;52438.09;;;-146.96;82.43
39105;BME280;46464;51.154;13.812;2023-04-30T02:31:03;52432.00;;;-146.96;82.68
39105;BME280;46464;51.154;13.812;2023-04-30T02:33:29;52421.81;;;-146.96;82.72
39105;BME280;46464;51.154;13.812;2023-04-30T02:35:57;52468.63;;;-146.96;83.12
39105;BME280;46464;51.154;13.812;2023-04-30T02:38:24;52456.41;;;-146.96;83.73
39105;BME280;46464;51.154;13.812;2023-04-30T02:40:50;52468.63;;;-146.96;82.77
39105;BME280;46464;51.154;13.812;2023-04-30T02:43:16;52448.28;;;-146.96;82.59
39105;BME280;46464;51.154;13.812;2023-04-30T02:45:43;52436.06;;;-146.96;82.52
39105;BME280;46464;51.154;13.812;2023-04-30T02:48:09;52415.72;;;-146.96;82.59
39105;BME280;46464;51.154;13.812;2023-04-30T02:50:36;52462.53;;;-146.96;82.38
39105;BME280;46464;51.154;13.812;2023-04-30T02:53:02;52450.31;;;-146.96;82.55
39105;BME280;46464;51.154;13.812;2023-04-30T02:55:28;52456.41;;;-146.96;82.82
39105;BME280;46464;51.154;13.812;2023-04-30T02:57:55;52432.00;;;-146.96;83.01
39105;BME280;46464;51.154;13.812;2023-04-30T03:00:21;52438.09;;;-146.96;83.34
39105;BME280;46464;51.154;13.812;2023-04-30T03:02:48;52495.06;;;-146.96;83.40
39105;BME280;46464;51.154;13.812;2023-04-30T03:05:14;52468.63;;;-146.96;84.50
39105;BME280;46464;51.154;13.812;2023-04-30T03:07:41;52491.00;;;-146.96;84.39
39105;BME280;46464;51.154;13.812;2023-04-30T03:10:07;52442.19;;;-146.96;83.97
39105;BME280;46464;51.154;13.812;2023-04-30T03:12:34;52456.41;;;-146.96;84.40
39105;BME280;46464;51.154;13.812;2023-04-30T03:15:00;52452.34;;;-146.96;84.55
39105;BME280;46464;51.154;13.812;2023-04-30T03:17:27;52472.69;;;-146.96;84.29
39105;BME280;46464;51.154;13.812;2023-04-30T03:19:53;52466.59;;;-146.96;84.44
39105;BME280;46464;51.154;13.812;2023-04-30T03:22:20;52468.63;;;-146.96;85.17
39105;BME280;46464;51.154;13.812;2023-04-30T03:24:48;52482.88;;;-146.96;85.54
39105;BME280;46464;51.154;13.812;2023-04-30T03:27:15;52468.63;;;-146.96;85.38
39105;BME280;46464;51.154;13.812;2023-04-30T03:29:42;52450.31;;;-146.96;85.19
39105;BME280;46464;51.154;13.812;2023-04-30T03:32:08;52462.53;;;-146.96;85.71
39105;BME280;46464;51.154;13.812;2023-04-30T03:34:34;52468.63;;;-146.96;86.50
39105;BME280;46464;51.154;13.812;2023-04-30T03:37:01;52466.59;;;-146.96;87.02
39105;BME280;46464;51.154;13.812;2023-04-30T03:39:27;52452.34;;;-146.96;87.21
39105;BME280;46464;51.154;13.812;2023-04-30T03:41:53;52464.56;;;-146.96;87.26
39105;BME280;46464;51.154;13.812;2023-04-30T03:44:20;52470.66;;;-146.96;87.23
39105;BME280;46464;51.154;13.812;2023-04-30T03:46:46;52511.34;;;-146.96;87.54
39105;BME280;46464;51.154;13.812;2023-04-30T03:49:12;52478.81;;;-146.96;87.43
39105;BME280;46464;51.154;13.812;2023-04-30T03:51:39;52452.34;;;-146.96;88.00
39105;BME280;46464;51.154;13.812;2023-04-30T03:54:07;52507.28;;;-146.96;88.59
39105;BME280;46464;51.154;13.812;2023-04-30T03:56:33;52470.66;;;-146.96;88.90
39105;BME280;46464;51.154;13.812;2023-04-30T03:59:01;52513.41;;;-146.96;88.54
39105;BME280;46464;51.154;13.812;2023-04-30T04:01:28;52493.03;;;-146.96;89.19
39105;BME280;46464;51.154;13.812;2023-04-30T04:03:54;52501.19;;;-146.96;89.43
39105;BME280;46464;51.154;13.812;2023-04-30T04:06:21;52499.16;;;-146.96;89.43
39105;BME280;46464;51.154;13.812;2023-04-30T04:08:47;52462.53;;;-146.96;89.41
39105;BME280;46464;51.154;13.812;2023-04-30T04:11:14;52482.88;;;-146.96;88.88
39105;BME280;46464;51.154;13.812;2023-04-30T04:13:40;52499.16;;;-146.96;88.51
39105;BME280;46464;51.154;13.812;2023-04-30T04:16:06;52484.91;;;-146.96;87.65
39105;BME280;46464;51.154;13.812;2023-04-30T04:18:34;52476.75;;;-146.96;87.37
39105;BME280;46464;51.154;13.812;2023-04-30T04:21:00;52446.25;;;-146.96;87.24
39105;BME280;46464;51.154;13.812;2023-04-30T04:23:26;52497.13;;;-146.96;87.74
39105;BME280;46464;51.154;13.812;2023-04-30T04:25:53;52507.28;;;-146.96;87.47
39105;BME280;46464;51.154;13.812;2023-04-30T04:28:19;52472.69;;;-146.96;87.16
39105;BME280;46464;51.154;13.812;2023-04-30T04:30:46;52478.81;;;-146.96;87.35
39105;BME280;46464;51.154;13.812;2023-04-30T04:33:12;52448.28;;;-146.96;87.20
39105;BME280;46464;51.154;13.812;2023-04-30T04:35:39;52527.63;;;-146.96;86.96
39105;BME280;46464;51.154;13.812;2023-04-30T04:38:06;52474.72;;;-146.96;87.07
39105;BME280;46464;51.154;13.812;2023-04-30T04:40:32;52509.31;;;-146.96;86.77
39105;BME280;46464;51.154;13.812;2023-04-30T04:43:00;52503.22;;;-146.96;86.61
39105;BME280;46464;51.154;13.812;2023-04-30T04:45:26;52466.59;;;-146.96;87.01
39105;BME280;46464;51.154;13.812;2023-04-30T04:47:53;52470.66;;;-146.96;87.01
39105;BME280;46464;51.154;13.812;2023-04-30T04:50:19;52460.50;;;-146.96;86.73
39105;BME280;46464;51.154;13.812;2023-04-30T04:52:46;52501.19;;;-146.96;86.58
39105;BME280;46464;51.154;13.812;2023-04-30T04:55:12;52476.75;;;-146.96;86.49
39105;BME280;46464;51.154;13.812;2023-04-30T04:57:39;52476.75;;;-146.96;86.88
39105;BME280;46464;51.154;13.812;2023-04-30T05:00:07;52488.97;;;-146.96;86.94
39105;BME280;46464;51.154;13.812;2023-04-30T05:02:35;52458.44;;;-146.96;86.78
39105;BME280;46464;51.154;13.812;2023-04-30T05:05:01;52440.13;;;-146.96;86.67
39105;BME280;46464;51.154;13.812;2023-04-30T05:07:28;52448.28;;;-146.96;86.74
39105;BME280;46464;51.154;13.812;2023-04-30T05:09:55;52456.41;;;-146.96;86.73
39105;BME280;46464;51.154;13.812;2023-04-30T05:12:22;52484.91;;;-146.96;86.81
39105;BME280;46464;51.154;13.812;2023-04-30T05:14:48;52468.63;;;-146.96;86.44
39105;BME280;46464;51.154;13.812;2023-04-30T05:17:16;52442.19;;;-146.96;86.19
39105;BME280;46464;51.154;13.812;2023-04-30T05:19:42;52460.50;;;-146.96;85.92
39105;BME280;46464;51.154;13.812;2023-04-30T05:22:09;52470.66;;;-146.96;84.44
39105;BME280;46464;51.154;13.812;2023-04-30T05:24:35;52448.28;;;-146.96;81.89
39105;BME280;46464;51.154;13.812;2023-04-30T05:27:02;52391.31;;;-146.96;78.53
39105;BME280;46464;51.154;13.812;2023-04-30T05:29:30;52417.75;;;-146.96;77.29
39105;BME280;46464;51.154;13.812;2023-04-30T05:31:57;52385.19;;;-146.96;77.43
39105;BME280;46464;51.154;13.812;2023-04-30T05:34:23;52391.31;;;-146.96;74.47
39105;BME280;46464;51.154;13.812;2023-04-30T05:36:50;52340.44;;;-146.96;73.56
39105;BME280;46464;51.154;13.812;2023-04-30T05:39:16;52350.59;;;-146.96;71.21
39105;BME280;46464;51.154;13.812;2023-04-30T05:41:43;52342.47;;;-146.96;71.16
39105;BME280;46464;51.154;13.812;2023-04-30T05:44:09;52299.75;;;-146.96;69.24
39105;BME280;46464;51.154;13.812;2023-04-30T05:46:35;52293.63;;;-146.96;68.29
39105;BME280;46464;51.154;13.812;2023-04-30T05:49:02;52316.03;;;-146.96;68.39
39105;BME280;46464;51.154;13.812;2023-04-30T05:51:28;52277.34;;;-146.96;68.76
39105;BME280;46464;51.154;13.812;2023-04-30T05:53:55;52313.97;;;-146.96;67.10
39105;BME280;46464;51.154;13.812;2023-04-30T05:56:22;52316.03;;;-146.96;65.60
39105;BME280;46464;51.154;13.812;2023-04-30T05:58:50;52293.63;;;-146.96;65.47
39105;BME280;46464;51.154;13.812;2023-04-30T06:01:20;52297.72;;;-146.96;64.87
39105;BME280;46464;51.154;13.812;2023-04-30T06:03:48;52265.16;;;-146.96;64.78
39105;BME280;46464;51.154;13.812;2023-04-30T06:06:14;52257.00;;;-146.96;63.88
39105;BME280;46464;51.154;13.812;2023-04-30T06:08:41;52259.03;;;-146.96;63.23
39105;BME280;46464;51.154;13.812;2023-04-30T06:11:10;52259.03;;;-146.96;63.61
39105;BME280;46464;51.154;13.812;2023-04-30T06:13:37;52265.16;;;-146.96;63.90
39105;BME280;46464;51.154;13.812;2023-04-30T06:16:05;52297.72;;;-146.96;65.85
39105;BME280;46464;51.154;13.812;2023-04-30T06:18:31;52277.34;;;-146.96;65.82
39105;BME280;46464;51.154;13.812;2023-04-30T06:20:58;52338.41;;;-146.96;68.83
39105;BME280;46464;51.154;13.812;2023-04-30T06:23:24;52336.38;;;-146.96;70.33
39105;BME280;46464;51.154;13.812;2023-04-30T06:25:50;52318.06;;;-146.96;70.58
39105;BME280;46464;51.154;13.812;2023-04-30T06:28:17;52322.13;;;-146.96;71.28
39105;BME280;46464;51.154;13.812;2023-04-30T06:30:43;52356.72;;;-146.96;72.17
39105;BME280;46464;51.154;13.812;2023-04-30T06:33:09;52336.38;;;-146.96;73.00
39105;BME280;46464;51.154;13.812;2023-04-30T06:35:36;52338.41;;;-146.96;73.37
39105;BME280;46464;51.154;13.812;2023-04-30T06:38:02;52399.44;;;-146.96;73.00
39105;BME280;46464;51.154;13.812;2023-04-30T06:40:29;52334.34;;;-146.96;73.56
39105;BME280;46464;51.154;13.812;2023-04-30T06:42:55;52344.50;;;-146.96;72.50
39105;BME280;46464;51.154;13.812;2023-04-30T06:45:22;52379.09;;;-146.96;71.78
39105;BME280;46464;51.154;13.812;2023-04-30T06:47:48;52311.94;;;-146.96;71.36
39105;BME280;46464;51.154;13.812;2023-04-30T06:50:15;52279.41;;;-146.96;71.27
39105;BME280;46464;51.154;13.812;2023-04-30T06:52:41;52309.91;;;-146.96;69.62
39105;BME280;46464;51.154;13.812;2023-04-30T06:55:08;52261.09;;;-146.96;67.55
39105;BME280;46464;51.154;13.812;2023-04-30T06:57:34;52259.03;;;-146.96;65.88
39105;BME280;46464;51.154;13.812;2023-04-30T07:00:05;52281.44;;;-146.96;66.22
39105;BME280;46464;51.154;13.812;2023-04-30T07:02:32;52297.72;;;-146.96;65.16
39105;BME280;46464;51.154;13.812;2023-04-30T07:04:59;52295.66;;;-146.96;67.57
39105;BME280;46464;51.154;13.812;2023-04-30T07:07:25;52342.47;;;-146.96;68.44
39105;BME280;46464;51.154;13.812;2023-04-30T07:09:52;52350.59;;;-146.96;68.58
39105;BME280;46464;51.154;13.812;2023-04-30T07:12:19;52318.06;;;-146.96;69.32
39105;BME280;46464;51.154;13.812;2023-04-30T07:14:45;52336.38;;;-146.96;67.31
39105;BME280;46464;51.154;13.812;2023-04-30T07:17:12;52305.84;;;-146.96;66.60
39105;BME280;46464;51.154;13.812;2023-04-30T07:19:38;52279.41;;;-146.96;65.28
39105;BME280;46464;51.154;13.812;2023-04-30T07:22:05;52299.75;;;-146.96;63.43
39105;BME280;46464;51.154;13.812;2023-04-30T07:24:31;52293.63;;;-146.96;64.72
39105;BME280;46464;51.154;13.812;2023-04-30T07:26:57;52259.03;;;-146.96;63.93
39105;BME280;46464;51.154;13.812;2023-04-30T07:29:28;52326.19;;;-146.96;62.93
39105;BME280;46464;51.154;13.812;2023-04-30T07:31:54;52289.56;;;-146.96;63.31
39105;BME280;46464;51.154;13.812;2023-04-30T07:34:21;52301.78;;;-146.96;64.42
39105;BME280;46464;51.154;13.812;2023-04-30T07:36:48;52293.63;;;-146.96;63.63
39105;BME280;46464;51.154;13.812;2023-04-30T07:39:15;52277.34;;;-146.96;62.78
39105;BME280;46464;51.154;13.812;2023-04-30T07:41:42;52307.88;;;-146.96;62.74
39105;BME280;46464;51.154;13.812;2023-04-30T07:44:08;52277.34;;;-146.96;62.71
39105;BME280;46464;51.154;13.812;2023-04-30T07:46:36;52295.66;;;-146.96;63.93
39105;BME280;46464;51.154;13.812;2023-04-30T07:49:03;52293.63;;;-146.96;64.33
39105;BME280;46464;51.154;13.812;2023-04-30T07:51:29;52277.34;;;-146.96;64.19
39105;BME280;46464;51.154;13.812;2023-04-30T07:53:59;52311.94;;;-146.96;65.56
39105;BME280;46464;51.154;13.812;2023-04-30T07:56:26;52275.31;;;-146.96;66.21
39105;BME280;46464;51.154;13.812;2023-04-30T07:58:52;52289.56;;;-146.96;65.67
39105;BME280;46464;51.154;13.812;2023-04-30T08:01:18;52283.47;;;-146.96;65.10
39105;BME280;46464;51.154;13.812;2023-04-30T08:03:45;52348.56;;;-146.96;64.58
39105;BME280;46464;51.154;13.812;2023-04-30T08:06:11;52291.59;;;-146.96;64.95
39105;BME280;46464;51.154;13.812;2023-04-30T08:08:38;52279.41;;;-146.96;66.15
39105;BME280;46464;51.154;13.812;2023-04-30T08:11:04;52309.91;;;-146.96;61.83
39105;BME280;46464;51.154;13.812;2023-04-30T08:13:31;52277.34;;;-146.96;61.97
39105;BME280;46464;51.154;13.812;2023-04-30T08:15:58;52313.97;;;-146.96;64.06
39105;BME280;46464;51.154;13.812;2023-04-30T08:18:24;52309.91;;;-146.96;62.62
39105;BME280;46464;51.154;13.812;2023-04-30T08:20:50;52271.25;;;-146.96;64.39
39105;BME280;46464;51.154;13.812;2023-04-30T08:23:17;52265.16;;;-146.96;62.50
39105;BME280;46464;51.154;13.812;2023-04-30T08:25:43;52257.00;;;-146.96;64.72
39105;BME280;46464;51.154;13.812;2023-04-30T08:28:10;52261.09;;;-146.96;61.83
39105;BME280;46464;51.154;13.812;2023-04-30T08:30:36;52240.75;;;-146.96;62.31
39105;BME280;46464;51.154;13.812;2023-04-30T08:33:02;52273.28;;;-146.96;62.18
39105;BME280;46464;51.154;13.812;2023-04-30T08:35:29;52238.69;;;-146.96;61.04
39105;BME280;46464;51.154;13.812;2023-04-30T08:37:55;52281.44;;;-146.96;62.20
39105;BME280;46464;51.154;13.812;2023-04-30T08:40:22;52244.81;;;-146.96;62.29
39105;BME280;46464;51.154;13.812;2023-04-30T08:43:08;52265.16;;;-146.96;62.99
39105;BME280;46464;51.154;13.812;2023-04-30T08:45:36;52271.25;;;-146.96;62.41
39105;BME280;46464;51.154;13.812;2023-04-30T08:48:03;52275.31;;;-146.96;60.92
39105;BME280;46464;51.154;13.812;2023-04-30T08:50:30;52271.25;;;-146.96;62.61
39105;BME280;46464;51.154;13.812;2023-04-30T08:52:57;52242.78;;;-146.96;63.29
39105;BME280;46464;51.154;13.812;2023-04-30T08:55:25;52244.81;;;-146.96;61.47
39105;BME280;46464;51.154;13.812;2023-04-30T08:57:52;52250.91;;;-146.96;60.68
39105;BME280;46464;51.154;13.812;2023-04-30T09:00:18;52275.31;;;-146.96;60.74
39105;BME280;46464;51.154;13.812;2023-04-30T09:02:45;52263.13;;;-146.96;60.90
39105;BME280;46464;51.154;13.812;2023-04-30T09:05:13;52261.09;;;-146.96;61.91
39105;BME280;46464;51.154;13.812;2023-04-30T09:07:41;52252.94;;;-146.96;61.97
39105;BME280;46464;51.154;13.812;2023-04-30T09:10:21;52240.75;;;-146.96;63.11
39105;BME280;46464;51.154;13.812;2023-04-30T09:13:00;52236.66;;;-146.96;60.90
39105;BME280;46464;51.154;13.812;2023-04-30T09:15:28;52204.13;;;-146.96;60.03
39105;BME280;46464;51.154;13.812;2023-04-30T09:18:14;52222.41;;;-146.96;57.87
39105;BME280;46464;51.154;13.812;2023-04-30T09:20:54;52216.31;;;-146.96;59.51
39105;BME280;46464;51.154;13.812;2023-04-30T09:23:21;52208.19;;;-146.96;56.72
39105;BME280;46464;51.154;13.812;2023-04-30T09:25:48;52216.31;;;-146.96;57.38
39105;BME280;46464;51.154;13.812;2023-04-30T09:28:14;52212.25;;;-146.96;56.65
39105;BME280;46464;51.154;13.812;2023-04-30T09:30:41;52246.84;;;-146.96;57.58
39105;BME280;46464;51.154;13.812;2023-04-30T09:33:07;52234.63;;;-146.96;57.14
39105;BME280;46464;51.154;13.812;2023-04-30T09:35:38;52222.41;;;-146.96;58.26
39105;BME280;46464;51.154;13.812;2023-04-30T09:38:06;52200.03;;;-146.96;57.41
39105;BME280;46464;51.154;13.812;2023-04-30T09:40:37;52204.13;;;-146.96;55.65
39105;BME280;46464;51.154;13.812;2023-04-30T09:43:04;52208.19;;;-146.96;54.94
39105;BME280;46464;51.154;13.812;2023-04-30T09:45:47;52191.91;;;-146.96;56.23
39105;BME280;46464;51.154;13.812;2023-04-30T09:48:15;52220.38;;;-146.96;54.33
39105;BME280;46464;51.154;13.812;2023-04-30T09:50:43;52246.84;;;-146.96;53.91
39105;BME280;46464;51.154;13.812;2023-04-30T09:53:12;52173.59;;;-146.96;54.19
39105;BME280;46464;51.154;13.812;2023-04-30T09:55:43;52216.31;;;-146.96;52.88
39105;BME280;46464;51.154;13.812;2023-04-30T09:58:11;52204.13;;;-146.96;54.12
39105;BME280;46464;51.154;13.812;2023-04-30T10:00:37;52195.97;;;-146.96;54.34
39105;BME280;46464;51.154;13.812;2023-04-30T10:03:09;52175.63;;;-146.96;55.16
39105;BME280;46464;51.154;13.812;2023-04-30T10:05:36;52185.81;;;-146.96;52.17
39105;BME280;46464;51.154;13.812;2023-04-30T10:08:04;52193.94;;;-146.96;51.73
39105;BME280;46464;51.154;13.812;2023-04-30T10:10:32;52159.34;;;-146.96;53.19
39105;BME280;46464;51.154;13.812;2023-04-30T10:13:02;52175.63;;;-146.96;51.85
39105;BME280;46464;51.154;13.812;2023-04-30T10:15:36;52153.25;;;-146.96;53.14
39105;BME280;46464;51.154;13.812;2023-04-30T10:18:05;52126.78;;;-146.96;51.69
39105;BME280;46464;51.154;13.812;2023-04-30T10:20:34;52132.91;;;-146.96;50.90
39105;BME280;46464;51.154;13.812;2023-04-30T10:23:01;52124.75;;;-146.96;53.38
39105;BME280;46464;51.154;13.812;2023-04-30T10:25:27;52110.53;;;-146.96;51.73
39105;BME280;46464;51.154;13.812;2023-04-30T10:27:54;52155.28;;;-146.96;48.40
39105;BME280;46464;51.154;13.812;2023-04-30T10:30:21;52151.22;;;-146.96;47.96
39105;BME280;46464;51.154;13.812;2023-04-30T10:32:50;52173.59;;;-146.96;47.28
39105;BME280;46464;51.154;13.812;2023-04-30T10:35:19;52171.56;;;-146.96;46.70
39105;BME280;46464;51.154;13.812;2023-04-30T10:37:49;52165.44;;;-146.96;48.07
39105;BME280;46464;51.154;13.812;2023-04-30T10:40:18;52094.25;;;-146.96;49.16
39105;BME280;46464;51.154;13.812;2023-04-30T10:42:46;52157.31;;;-146.96;47.73
39105;BME280;46464;51.154;13.812;2023-04-30T10:45:14;52139.00;;;-146.96;48.48
39105;BME280;46464;51.154;13.812;2023-04-30T10:47:41;52106.44;;;-146.96;50.60
39105;BME280;46464;51.154;13.812;2023-04-30T10:50:08;52141.03;;;-146.96;47.11
39105;BME280;46464;51.154;13.812;2023-04-30T10:52:36;52100.34;;;-146.96;49.12
39105;BME280;46464;51.154;13.812;2023-04-30T10:55:03;52112.56;;;-146.96;49.01
39105;BME280;46464;51.154;13.812;2023-04-30T10:57:30;52104.41;;;-146.96;46.82
39105;BME280;46464;51.154;13.812;2023-04-30T11:02:42;52088.13;;;-146.96;45.99
39105;BME280;46464;51.154;13.812;2023-04-30T11:07:37;52126.78;;;-146.96;46.93
39105;BME280;46464;51.154;13.812;2023-04-30T11:10:11;52096.28;;;-146.96;49.33
39105;BME280;46464;51.154;13.812;2023-04-30T11:12:48;52096.28;;;-146.96;47.23
39105;BME280;46464;51.154;13.812;2023-04-30T11:15:16;52067.78;;;-146.96;47.79
39105;BME280;46464;51.154;13.812;2023-04-30T11:17:43;52106.44;;;-146.96;48.47
39105;BME280;46464;51.154;13.812;2023-04-30T11:20:18;52071.84;;;-146.96;46.64
39105;BME280;46464;51.154;13.812;2023-04-30T11:22:46;52098.31;;;-146.96;46.92
39105;BME280;46464;51.154;13.812;2023-04-30T11:25:25;52069.81;;;-146.96;47.38
39105;BME280;46464;51.154;13.812;2023-04-30T11:27:52;52077.97;;;-146.96;45.63
39105;BME280;46464;51.154;13.812;2023-04-30T11:30:21;52088.13;;;-146.96;45.13
39105;BME280;46464;51.154;13.812;2023-04-30T11:32:48;52118.66;;;-146.96;45.53
39105;BME280;46464;51.154;13.812;2023-04-30T11:35:16;52073.91;;;-146.96;44.10
39105;BME280;46464;51.154;13.812;2023-04-30T11:37:43;52084.06;;;-146.96;44.56
39105;BME280;46464;51.154;13.812;2023-04-30T11:40:13;52098.31;;;-146.96;43.23
39105;BME280;46464;51.154;13.812;2023-04-30T11:42:41;52069.81;;;-146.96;43.79
39105;BME280;46464;51.154;13.812;2023-04-30T11:45:12;52077.97;;;-146.96;44.80
39105;BME280;46464;51.154;13.812;2023-04-30T11:47:46;52088.13;;;-146.96;43.77
39105;BME280;46464;51.154;13.812;2023-04-30T11:50:17;52037.28;;;-146.96;44.06
39105;BME280;46464;51.154;13.812;2023-04-30T11:52:48;52061.69;;;-146.96;44.42
39105;BME280;46464;51.154;13.812;2023-04-30T11:55:15;52049.47;;;-146.96;43.78
39105;BME280;46464;51.154;13.812;2023-04-30T11:57:42;52043.38;;;-146.96;44.31
39105;BME280;46464;51.154;13.812;2023-04-30T12:00:10;52075.94;;;-146.96;42.74
39105;BME280;46464;51.154;13.812;2023-04-30T12:02:37;52080.00;;;-146.96;44.52
39105;BME280;46464;51.154;13.812;2023-04-30T12:05:10;52065.75;;;-146.96;44.93
39105;BME280;46464;51.154;13.812;2023-04-30T12:07:38;52039.31;;;-146.96;44.41
39105;BME280;46464;51.154;13.812;2023-04-30T12:10:04;52057.63;;;-146.96;44.81
39105;BME280;46464;51.154;13.812;2023-04-30T12:12:31;52016.94;;;-146.96;45.88
39105;BME280;46464;51.154;13.812;2023-04-30T12:14:57;52043.38;;;-146.96;45.16
39105;BME280;46464;51.154;13.812;2023-04-30T12:17:31;52090.16;;;-146.96;44.07
39105;BME280;46464;51.154;13.812;2023-04-30T12:19:58;52041.34;;;-146.96;42.89
39105;BME280;46464;51.154;13.812;2023-04-30T12:22:24;52012.84;;;-146.96;43.68
39105;BME280;46464;51.154;13.812;2023-04-30T12:24:51;52039.31;;;-146.96;42.41
39105;BME280;46464;51.154;13.812;2023-04-30T12:27:17;52043.38;;;-146.96;40.97
39105;BME280;46464;51.154;13.812;2023-04-30T12:29:43;52010.81;;;-146.96;41.82
39105;BME280;46464;51.154;13.812;2023-04-30T12:32:11;52018.97;;;-146.96;41.12
39105;BME280;46464;51.154;13.812;2023-04-30T12:34:41;52057.63;;;-146.96;38.91
39105;BME280;46464;51.154;13.812;2023-04-30T12:37:07;52025.06;;;-146.96;37.46
39105;BME280;46464;51.154;13.812;2023-04-30T12:39:34;52033.19;;;-146.96;39.66
39105;BME280;46464;51.154;13.812;2023-04-30T12:42:01;52043.38;;;-146.96;38.13